Time;durP1;ratioP1;P1;durP2;ratioP2;P2;SDS_P1;SDS_P2;PMS_P1;PMS_P2;Temp;Humidity;BMP_temperature;BMP_pressure;BME280_temperature;BME280_humidity;BME280_pressure;Samples;Min_cycle;Max_cycle;Signal;HPM_P1;HPM_P2
2022/03/07 00:01:52;;;;;;;17.27;11.13;;;;;;;3.68;86.89;101099.59;5015061;28;20200;-76
2022/03/07 00:04:18;;;;;;;15.33;10.43;;;;;;;3.71;85.83;101099.06;5013853;28;20172;-77
2022/03/07 00:06:44;;;;;;;12.93;9.13;;;;;;;3.70;86.40;101092.16;5014240;28;20177;-77
2022/03/07 00:09:10;;;;;;;13.43;9.57;;;;;;;3.70;87.06;101088.00;5019959;28;20173;-76
2022/03/07 00:11:36;;;;;;;13.70;9.83;;;;;;;3.66;86.77;101089.97;5014133;28;20614;-77
2022/03/07 00:14:02;;;;;;;12.30;9.03;;;;;;;3.68;86.48;101086.91;5013532;28;20169;-77
2022/03/07 00:16:29;;;;;;;14.53;9.40;;;;;;;3.66;86.79;101092.50;5011986;28;20208;-77
2022/03/07 00:18:54;;;;;;;12.70;8.60;;;;;;;3.47;87.06;101061.44;5015109;28;20192;-76
2022/03/07 00:21:20;;;;;;;15.30;9.33;;;;;;;3.38;86.86;101045.09;5013982;28;20176;-77
2022/03/07 00:23:46;;;;;;;12.13;8.83;;;;;;;3.59;87.08;101074.72;5013289;28;20179;-77
2022/03/07 00:26:12;;;;;;;11.63;7.87;;;;;;;3.28;86.66;101025.31;5013242;28;20645;-77
2022/03/07 00:28:38;;;;;;;12.53;8.13;;;;;;;3.63;86.75;101071.84;5013433;28;20184;-76
2022/03/07 00:31:04;;;;;;;13.77;8.33;;;;;;;3.64;86.67;101069.50;5012913;28;20176;-77
2022/03/07 00:33:30;;;;;;;11.70;7.90;;;;;;;3.57;86.90;101053.34;5012704;28;20234;-76
2022/03/07 00:35:55;;;;;;;9.53;7.17;;;;;;;3.67;86.69;101063.91;5012659;28;20271;-76
2022/03/07 00:38:21;;;;;;;9.63;7.20;;;;;;;3.61;86.91;101056.44;5012691;28;20203;-76
2022/03/07 00:40:47;;;;;;;12.10;7.60;;;;;;;3.62;86.83;101054.84;5012649;28;20280;-78
2022/03/07 00:43:13;;;;;;;9.20;7.00;;;;;;;3.51;86.79;101027.25;5012359;28;20299;-76
2022/03/07 00:45:38;;;;;;;10.27;7.17;;;;;;;3.53;85.87;101026.72;5012415;28;20645;-77
2022/03/07 00:48:04;;;;;;;12.97;8.80;;;;;;;3.54;86.21;101035.22;5012381;28;20262;-77
2022/03/07 00:50:30;;;;;;;14.50;10.03;;;;;;;3.42;85.98;101002.56;5012464;28;20271;-77
2022/03/07 00:52:55;;;;;;;15.97;10.83;;;;;;;3.67;85.36;101047.06;5012768;28;20686;-77
2022/03/07 00:55:21;;;;;;;15.17;9.83;;;;;;;3.45;84.79;101007.13;5012736;28;20233;-78
2022/03/07 00:57:46;;;;;;;14.30;9.13;;;;;;;3.32;84.98;100992.03;5012984;28;20173;-77
2022/03/07 01:00:12;;;;;;;16.10;9.77;;;;;;;3.54;84.29;101031.06;5013434;28;20335;-77
2022/03/07 01:02:38;;;;;;;12.33;8.53;;;;;;;3.51;83.68;101033.22;5013743;28;20271;-76
2022/03/07 01:05:05;;;;;;;12.33;7.93;;;;;;;3.38;82.76;101017.22;5012330;28;20181;-76
2022/03/07 01:07:31;;;;;;;12.00;8.23;;;;;;;3.44;82.89;101040.78;5013894;28;20219;-76
2022/03/07 01:09:56;;;;;;;13.70;8.63;;;;;;;3.39;83.02;101039.28;5014845;28;20637;-77
2022/03/07 01:12:22;;;;;;;13.23;8.93;;;;;;;3.20;83.31;101004.06;5015774;28;20172;-76
2022/03/07 01:14:48;;;;;;;12.53;8.23;;;;;;;3.36;83.39;101039.81;5023080;28;20671;-76
2022/03/07 01:17:13;;;;;;;14.33;8.97;;;;;;;3.34;84.11;101033.66;5022874;28;20616;-76
2022/03/07 01:19:39;;;;;;;12.43;8.43;;;;;;;3.23;nan;101016.22;5027537;28;20255;-75
2022/03/07 01:22:05;;;;;;;13.27;7.93;;;;;;;3.26;82.49;101023.28;5032312;28;20184;-77
2022/03/07 01:24:30;;;;;;;13.33;7.97;;;;;;;3.28;82.73;101032.91;5035730;28;20177;-74
2022/03/07 01:26:56;;;;;;;13.00;7.77;;;;;;;3.21;82.33;101033.75;5031232;28;20200;-76
2022/03/07 01:29:22;;;;;;;13.53;8.50;;;;;;;3.16;82.34;101017.06;5030258;28;20219;-76
2022/03/07 01:31:47;;;;;;;14.67;8.23;;;;;;;3.22;81.83;101024.53;5029229;28;20570;-75
2022/03/07 01:34:13;;;;;;;11.67;7.80;;;;;;;3.10;81.73;100998.56;5023030;28;20275;-76
2022/03/07 01:36:39;;;;;;;12.77;8.10;;;;;;;3.19;82.30;101021.63;5014326;28;20644;-76
2022/03/07 01:39:05;;;;;;;11.67;7.13;;;;;;;3.10;81.58;101023.00;5018055;28;20197;-76
2022/03/07 01:41:30;;;;;;;12.00;7.27;;;;;;;3.02;81.84;101022.00;5025307;28;20179;-75
2022/03/07 01:43:56;;;;;;;10.93;7.43;;;;;;;3.07;82.08;101026.03;5019213;28;20228;-76
2022/03/07 01:46:22;;;;;;;13.50;7.47;;;;;;;3.08;82.01;101037.06;5017428;28;20168;-79
2022/03/07 01:48:48;;;;;;;10.17;6.80;;;;;;;3.07;82.60;101038.69;5011792;28;20237;-77
2022/03/07 01:51:16;;;;;;;12.70;7.60;;;;;;;3.06;82.58;101036.00;5011559;28;20176;-78
2022/03/07 01:53:43;;;;;;;11.83;7.97;;;;;;;2.96;82.78;101028.84;5011476;28;20260;-77
2022/03/07 01:56:09;;;;;;;10.97;7.63;;;;;;;2.92;82.28;101016.50;5011518;28;20708;-77
2022/03/07 01:58:35;;;;;;;9.77;6.30;;;;;;;3.01;82.36;101037.94;5011470;28;20333;-76
2022/03/07 02:01:02;;;;;;;9.47;6.97;;;;;;;3.00;82.50;101033.59;5010177;28;20235;-77
2022/03/07 02:03:27;;;;;;;11.40;6.80;;;;;;;3.00;81.99;101033.59;5011380;28;20589;-77
2022/03/07 02:05:54;;;;;;;10.93;7.37;;;;;;;2.99;82.00;101034.28;5011494;28;20169;-76
2022/03/07 02:08:19;;;;;;;13.47;7.67;;;;;;;2.99;81.98;101039.34;5011628;28;20165;-76
2022/03/07 02:10:45;;;;;;;11.83;7.10;;;;;;;2.96;81.64;101034.84;5011618;28;20280;-79
2022/03/07 02:13:15;;;;;;;8.73;6.67;;;;;;;2.96;81.12;101041.50;5011533;28;20204;-77
2022/03/07 02:15:40;;;;;;;9.23;6.40;;;;;;;2.96;81.34;101037.38;5010303;28;20195;-77
2022/03/07 02:18:06;;;;;;;10.67;6.87;;;;;;;2.93;80.76;101033.53;5011249;28;20714;-78
2022/03/07 02:20:31;;;;;;;8.97;6.70;;;;;;;2.87;81.33;101041.25;5011389;28;20267;-76
2022/03/07 02:22:57;;;;;;;11.07;7.07;;;;;;;2.93;81.86;101058.84;5013897;28;20551;-77
2022/03/07 02:25:23;;;;;;;11.80;8.13;;;;;;;2.84;81.74;101058.59;5015045;28;20187;-76
2022/03/07 02:27:48;;;;;;;13.53;7.97;;;;;;;2.85;82.07;101059.50;5015367;28;20256;-77
2022/03/07 02:30:14;;;;;;;12.27;7.73;;;;;;;2.83;83.06;101063.44;5015060;28;20177;-77
2022/03/07 02:32:43;;;;;;;10.47;7.40;;;;;;;2.86;83.26;101069.78;5014668;28;20782;-77
2022/03/07 02:35:13;;;;;;;11.37;7.47;;;;;;;2.88;82.27;101062.41;5015101;28;20176;-76
2022/03/07 02:37:39;;;;;;;10.50;6.97;;;;;;;2.86;82.18;101067.25;5014403;28;20235;-78
2022/03/07 02:40:05;;;;;;;10.13;7.53;;;;;;;2.84;82.44;101066.19;5015004;28;20204;-77
2022/03/07 02:42:30;;;;;;;10.30;6.97;;;;;;;2.86;82.64;101067.25;5015586;28;20752;-76
2022/03/07 02:44:56;;;;;;;9.57;7.03;;;;;;;2.85;82.58;101073.06;5016230;28;20256;-77
2022/03/07 02:47:23;;;;;;;10.30;7.33;;;;;;;2.88;82.25;101072.53;5017566;28;20165;-76
2022/03/07 02:49:51;;;;;;;10.20;7.30;;;;;;;2.51;82.26;100994.47;5015146;28;20164;-77
2022/03/07 02:52:17;;;;;;;9.60;6.80;;;;;;;2.90;82.20;101051.78;5014130;28;20173;-77
2022/03/07 02:54:42;;;;;;;12.53;7.77;;;;;;;2.85;82.13;101052.81;5017181;28;20176;-77
2022/03/07 02:57:08;;;;;;;10.77;7.13;;;;;;;2.91;81.84;101058.66;5018301;28;20177;-77
2022/03/07 02:59:34;;;;;;;12.77;8.20;;;;;;;2.91;81.90;101056.13;5019319;28;20215;-78
2022/03/07 03:01:59;;;;;;;10.90;7.33;;;;;;;2.92;81.97;101059.53;5019322;28;20557;-78
2022/03/07 03:04:25;;;;;;;11.80;7.73;;;;;;;2.89;81.59;101051.56;5019492;28;20750;-78
2022/03/07 03:06:50;;;;;;;13.73;8.07;;;;;;;2.80;82.80;101045.34;5019069;28;20177;-77
2022/03/07 03:09:16;;;;;;;11.67;8.03;;;;;;;2.88;82.45;101063.31;5020430;28;20668;-78
2022/03/07 03:11:42;;;;;;;13.07;8.60;;;;;;;2.87;82.34;101060.59;5019214;28;20223;-77
2022/03/07 03:14:07;;;;;;;13.73;8.63;;;;;;;2.88;82.74;101060.78;5019616;28;20706;-77
2022/03/07 03:16:33;;;;;;;12.73;8.13;;;;;;;2.83;82.70;101048.25;5015458;28;20674;-77
2022/03/07 03:18:59;;;;;;;13.40;9.13;;;;;;;2.84;83.12;101050.09;5014668;28;20721;-76
2022/03/07 03:21:25;;;;;;;14.50;8.73;;;;;;;2.85;83.79;101056.97;5016247;28;20204;-78
2022/03/07 03:23:50;;;;;;;13.67;8.83;;;;;;;2.72;83.80;101042.75;5015511;28;20184;-77
2022/03/07 03:26:16;;;;;;;13.20;8.37;;;;;;;2.78;83.61;101045.16;5014747;28;20184;-77
2022/03/07 03:28:42;;;;;;;14.70;9.07;;;;;;;2.69;83.39;101033.88;5014210;28;20184;-76
2022/03/07 03:31:11;;;;;;;14.70;9.30;;;;;;;2.82;83.37;101054.03;5014337;28;20192;-76
2022/03/07 03:33:39;;;;;;;15.63;9.50;;;;;;;2.72;83.20;101036.78;5013123;28;20284;-76
2022/03/07 03:36:05;;;;;;;12.53;8.97;;;;;;;2.79;83.67;101046.97;5014650;28;20204;-76
2022/03/07 03:38:30;;;;;;;13.63;8.93;;;;;;;2.77;83.07;101038.25;5013865;28;20232;-77
2022/03/07 03:40:56;;;;;;;13.97;9.03;;;;;;;2.75;83.06;101040.59;5012750;28;20181;-77
2022/03/07 03:43:22;;;;;;;14.10;8.87;;;;;;;2.85;83.28;101044.31;5014143;28;20294;-76
2022/03/07 03:45:47;;;;;;;14.87;9.33;;;;;;;2.83;83.37;101046.63;5019854;28;20173;-78
2022/03/07 03:48:13;;;;;;;16.87;9.83;;;;;;;2.68;83.27;101019.38;5017113;28;20593;-77
2022/03/07 03:50:38;;;;;;;15.97;9.83;;;;;;;2.72;83.27;101031.72;5015856;28;20191;-77
2022/03/07 03:53:04;;;;;;;15.37;9.77;;;;;;;2.77;82.74;101050.91;5012977;28;20239;-77
2022/03/07 03:55:30;;;;;;;14.70;8.77;;;;;;;2.50;82.90;101005.31;5012481;28;20836;-78
2022/03/07 03:57:55;;;;;;;14.87;9.40;;;;;;;2.71;83.92;101037.47;5018960;28;20228;-77
2022/03/07 04:00:21;;;;;;;14.40;9.70;;;;;;;2.75;83.97;101043.13;5021933;28;20676;-78
2022/03/07 04:02:46;;;;;;;18.67;10.53;;;;;;;2.75;83.13;101045.66;5020093;28;20177;-78
2022/03/07 04:05:14;;;;;;;17.00;10.47;;;;;;;2.71;83.37;101034.94;5019096;28;20181;-77
2022/03/07 04:07:40;;;;;;;17.90;10.00;;;;;;;2.74;83.30;101041.34;5014177;28;20674;-78
2022/03/07 04:10:06;;;;;;;17.10;9.23;;;;;;;2.66;82.77;101026.78;5013500;28;20680;-76
2022/03/07 04:12:32;;;;;;;60.63;28.90;;;;;;;2.66;82.90;101018.28;5013167;28;20319;-76
2022/03/07 04:14:57;;;;;;;28.30;15.37;;;;;;;2.72;82.64;101036.78;5013331;28;20233;-77
2022/03/07 04:17:23;;;;;;;15.87;10.47;;;;;;;2.68;83.35;101024.44;5013312;28;20556;-78
2022/03/07 04:19:48;;;;;;;15.83;9.37;;;;;;;2.69;83.32;101034.75;5013081;28;20200;-75
2022/03/07 04:22:15;;;;;;;17.50;10.10;;;;;;;2.52;83.82;101008.94;5013121;28;20184;-76
2022/03/07 04:24:40;;;;;;;17.40;10.57;;;;;;;2.71;83.64;101034.94;5012845;28;20284;-76
2022/03/07 04:27:06;;;;;;;72.10;34.37;;;;;;;2.60;84.00;101015.88;5012971;28;20711;-78
2022/03/07 04:29:32;;;;;;;52.13;27.20;;;;;;;2.65;82.90;101030.03;5012923;28;20223;-77
2022/03/07 04:31:58;;;;;;;19.73;10.90;;;;;;;2.40;82.86;100977.94;5012865;28;20207;-77
2022/03/07 04:34:23;;;;;;;17.03;8.93;;;;;;;2.69;82.45;101033.88;5012845;28;20177;-77
2022/03/07 04:36:49;;;;;;;11.97;8.03;;;;;;;2.68;82.97;101030.44;5012876;28;20180;-77
2022/03/07 04:39:17;;;;;;;14.27;9.73;;;;;;;2.67;82.50;101026.06;5012955;28;20203;-78
2022/03/07 04:41:44;;;;;;;11.40;7.70;;;;;;;2.66;82.70;101021.72;5013464;28;20177;-78
2022/03/07 04:44:11;;;;;;;12.30;7.80;;;;;;;2.69;82.51;101021.22;5013610;28;20630;-79
2022/03/07 04:46:37;;;;;;;12.00;8.17;;;;;;;2.73;82.16;101028.47;5013156;28;20576;-77
2022/03/07 04:49:03;;;;;;;12.17;7.57;;;;;;;2.76;82.06;101042.41;5012754;28;20648;-77
2022/03/07 04:51:28;;;;;;;11.53;7.87;;;;;;;2.65;82.05;101013.91;5012718;28;20176;-78
2022/03/07 04:53:54;;;;;;;10.87;7.40;;;;;;;2.64;82.02;101019.69;5012685;28;20177;-74
2022/03/07 04:56:19;;;;;;;11.57;7.47;;;;;;;2.64;82.44;101010.50;5012371;28;20177;-74
2022/03/07 04:58:45;;;;;;;13.23;8.17;;;;;;;2.68;82.54;101024.44;5012667;28;20284;-77
2022/03/07 05:01:13;;;;;;;15.13;8.43;;;;;;;2.67;82.77;101025.16;5012405;28;20718;-77
2022/03/07 05:03:39;;;;;;;12.97;8.43;;;;;;;2.71;82.35;101019.75;5011118;28;20231;-77
2022/03/07 05:06:05;;;;;;;13.23;8.67;;;;;;;2.84;82.67;101029.84;5009895;28;20184;-77
2022/03/07 05:08:30;;;;;;;13.10;7.97;;;;;;;2.87;80.93;101018.47;5010449;28;20326;-77
2022/03/07 05:10:56;;;;;;;11.53;7.47;;;;;;;2.97;80.58;101031.56;5010738;28;20201;-76
2022/03/07 05:13:21;;;;;;;14.93;8.50;;;;;;;2.94;81.20;101022.69;5010726;28;20207;-77
2022/03/07 05:15:47;;;;;;;14.83;8.30;;;;;;;2.95;81.39;101019.44;5010860;28;20311;-76
2022/03/07 05:18:14;;;;;;;12.10;7.87;;;;;;;2.99;80.46;101014.97;5010577;28;20165;-76
2022/03/07 05:20:40;;;;;;;18.23;8.47;;;;;;;3.03;80.78;101013.72;5011254;28;20180;-79
2022/03/07 05:23:05;;;;;;;16.13;8.13;;;;;;;3.08;80.39;101017.72;5011792;28;20615;-74
2022/03/07 05:25:31;;;;;;;16.13;9.27;;;;;;;3.15;79.87;101029.56;5011944;28;20180;-78
2022/03/07 05:27:56;;;;;;;16.23;8.07;;;;;;;3.18;80.10;101028.31;5012094;28;20176;-78
2022/03/07 05:30:23;;;;;;;13.50;8.43;;;;;;;3.16;79.63;101032.25;5012042;28;20179;-78
2022/03/07 05:32:51;;;;;;;12.47;8.17;;;;;;;3.23;79.74;101023.81;5011888;28;20196;-81
2022/03/07 05:35:17;;;;;;;23.93;11.40;;;;;;;3.28;79.85;101010.09;5011190;28;20262;-80
2022/03/07 05:37:43;;;;;;;15.33;10.10;;;;;;;3.49;79.79;101027.06;5011522;28;20176;-79
2022/03/07 05:40:10;;;;;;;15.27;10.00;;;;;;;3.67;81.18;101025.88;5012347;28;20258;-81
2022/03/07 05:42:36;;;;;;;18.67;10.83;;;;;;;3.79;78.23;101024.88;5012140;28;20253;-78
2022/03/07 05:45:04;;;;;;;15.63;9.27;;;;;;;3.82;78.28;101034.47;5012052;28;20169;-80
2022/03/07 05:47:30;;;;;;;16.37;9.63;;;;;;;3.83;77.53;101032.16;5012086;28;20173;-80
2022/03/07 05:49:55;;;;;;;13.43;8.77;;;;;;;3.83;77.30;101024.53;5012552;28;20632;-79
2022/03/07 05:52:21;;;;;;;15.03;9.20;;;;;;;3.84;77.24;101020.38;5012344;28;20668;-80
2022/03/07 05:54:47;;;;;;;16.63;9.97;;;;;;;3.86;77.60;101029.06;5014286;28;20180;-78
2022/03/07 05:57:12;;;;;;;14.97;9.97;;;;;;;3.93;76.44;101024.94;5011584;28;20180;-80
2022/03/07 05:59:38;;;;;;;18.70;11.60;;;;;;;3.76;77.10;100983.94;5011951;28;20212;-80
2022/03/07 06:02:03;;;;;;;17.20;10.43;;;;;;;4.06;77.18;101011.22;5012213;28;20586;-82
2022/03/07 06:04:29;;;;;;;17.20;10.00;;;;;;;4.08;75.53;101018.31;5014294;28;20208;-80
2022/03/07 06:06:54;;;;;;;17.57;10.20;;;;;;;4.09;75.97;101012.50;5013927;28;20181;-81
2022/03/07 06:09:20;;;;;;;20.40;11.17;;;;;;;4.04;76.79;101011.03;5012128;28;20199;-80
2022/03/07 06:11:46;;;;;;;20.73;11.90;;;;;;;4.08;76.07;101015.78;5012040;28;20188;-78
2022/03/07 06:14:12;;;;;;;19.57;11.70;;;;;;;4.16;76.88;101009.06;5011992;28;20173;-79
2022/03/07 06:16:38;;;;;;;19.93;11.33;;;;;;;4.20;76.10;101008.72;5011818;28;20172;-78
2022/03/07 06:19:03;;;;;;;17.93;10.83;;;;;;;4.20;76.12;101010.34;5012098;28;20208;-78
2022/03/07 06:21:29;;;;;;;21.93;10.97;;;;;;;4.25;76.69;101009.28;5011664;28;20246;-79
2022/03/07 06:23:56;;;;;;;19.30;10.43;;;;;;;4.23;76.62;101001.47;5012030;28;20181;-80
2022/03/07 06:26:21;;;;;;;19.67;11.10;;;;;;;4.35;76.07;101012.22;5011969;28;20173;-78
2022/03/07 06:28:47;;;;;;;17.93;10.90;;;;;;;4.33;76.28;101014.56;5011673;28;20567;-79
2022/03/07 06:31:12;;;;;;;18.40;11.20;;;;;;;4.28;75.39;101015.63;5010004;28;20184;-79
2022/03/07 06:33:38;;;;;;;15.93;10.20;;;;;;;4.24;76.23;101021.06;5012097;28;20193;-79
2022/03/07 06:36:06;;;;;;;15.83;10.00;;;;;;;4.13;76.17;101026.47;5011760;28;20576;-77
2022/03/07 06:38:33;;;;;;;16.23;9.77;;;;;;;3.90;77.03;101014.44;5009701;28;20185;-78
2022/03/07 06:40:58;;;;;;;17.50;10.13;;;;;;;3.88;77.21;101020.94;5011447;28;20177;-78
2022/03/07 06:43:24;;;;;;;16.87;10.00;;;;;;;3.67;77.38;100990.41;5011558;28;20681;-78
2022/03/07 06:45:51;;;;;;;17.37;10.33;;;;;;;3.46;77.62;100968.44;5011326;28;20599;-78
2022/03/07 06:48:16;;;;;;;19.07;11.47;;;;;;;3.72;78.00;101018.88;5011581;28;20220;-78
2022/03/07 06:50:42;;;;;;;20.30;12.23;;;;;;;3.67;78.36;101020.81;5011319;28;20227;-78
2022/03/07 06:53:08;;;;;;;17.83;10.30;;;;;;;3.56;78.16;101009.38;5011443;28;20176;-77
2022/03/07 06:55:33;;;;;;;17.60;10.30;;;;;;;3.57;78.83;101028.91;5011530;28;20315;-79
2022/03/07 06:57:59;;;;;;;20.93;11.37;;;;;;;3.52;78.84;101017.31;5011562;28;20184;-81
2022/03/07 07:00:25;;;;;;;19.70;11.50;;;;;;;3.48;79.35;101025.25;5011247;28;20755;-80
2022/03/07 07:02:50;;;;;;;18.63;10.47;;;;;;;3.29;79.39;100996.72;5015222;28;20235;-81
2022/03/07 07:05:16;;;;;;;17.37;11.30;;;;;;;3.20;79.18;100983.81;5012719;28;20186;-78
2022/03/07 07:07:42;;;;;;;21.63;11.80;;;;;;;3.42;79.64;101024.47;5011737;28;20184;-78
2022/03/07 07:10:09;;;;;;;20.20;11.37;;;;;;;3.39;79.36;101022.47;5015198;28;20184;-79
2022/03/07 07:12:36;;;;;;;19.73;11.80;;;;;;;3.36;80.56;101011.94;5016410;28;20208;-80
2022/03/07 07:15:02;;;;;;;23.73;12.20;;;;;;;3.28;80.03;101002.50;5018428;28;20663;-78
2022/03/07 07:17:28;;;;;;;18.27;11.67;;;;;;;3.34;80.39;101018.47;5013381;28;20173;-79
2022/03/07 07:19:53;;;;;;;21.17;12.97;;;;;;;3.40;80.29;101019.25;5014134;28;20207;-78
2022/03/07 07:22:19;;;;;;;33.33;15.17;;;;;;;3.28;79.99;100999.97;5014177;28;20176;-80
2022/03/07 07:24:44;;;;;;;19.80;11.20;;;;;;;3.13;80.19;100970.22;5014161;28;20267;-79
2022/03/07 07:27:10;;;;;;;23.17;11.13;;;;;;;3.44;79.75;101023.06;5012918;28;20664;-77
2022/03/07 07:29:36;;;;;;;20.10;12.10;;;;;;;3.39;79.95;101012.34;5013189;28;20169;-78
2022/03/07 07:32:02;;;;;;;19.53;10.50;;;;;;;3.34;79.53;101005.81;5014655;28;20259;-80
2022/03/07 07:34:28;;;;;;;19.10;11.87;;;;;;;3.34;79.67;101009.97;5012869;28;20173;-79
2022/03/07 07:36:54;;;;;;;20.53;13.13;;;;;;;3.43;80.50;101019.63;5014106;28;20188;-79
2022/03/07 07:39:19;;;;;;;19.60;11.60;;;;;;;3.45;80.30;101030.81;5014279;28;20204;-79
2022/03/07 07:41:45;;;;;;;19.27;11.90;;;;;;;3.37;80.26;101013.78;5014709;28;20181;-79
2022/03/07 07:44:10;;;;;;;19.03;10.63;;;;;;;3.43;79.70;101027.22;5014223;28;20278;-81
2022/03/07 07:46:36;;;;;;;24.23;11.23;;;;;;;3.44;80.21;101023.94;5014292;28;20710;-79
2022/03/07 07:49:02;;;;;;;30.93;16.60;;;;;;;3.46;80.28;101024.16;5014390;28;20184;-79
2022/03/07 07:51:27;;;;;;;22.00;12.30;;;;;;;3.43;79.98;101026.31;5014113;28;20216;-80
2022/03/07 07:53:53;;;;;;;19.37;11.23;;;;;;;3.45;79.88;101022.31;5014629;28;20283;-79
2022/03/07 07:56:18;;;;;;;21.13;12.57;;;;;;;3.40;79.84;101024.31;5014384;28;20188;-81
2022/03/07 07:58:44;;;;;;;31.30;16.97;;;;;;;3.40;79.26;101010.72;5015511;28;20263;-80
2022/03/07 08:01:10;;;;;;;33.13;18.80;;;;;;;3.51;79.21;101028.16;5018375;28;20164;-80
2022/03/07 08:03:35;;;;;;;35.07;20.53;;;;;;;3.45;79.73;101023.22;5016595;28;20183;-80
2022/03/07 08:06:01;;;;;;;19.03;11.37;;;;;;;3.15;79.85;100964.63;5016195;28;20248;-82
2022/03/07 08:08:26;;;;;;;21.30;11.03;;;;;;;3.53;79.33;101030.91;5016841;28;20199;-81
2022/03/07 08:10:52;;;;;;;18.47;11.40;;;;;;;3.54;79.76;101035.22;5015292;28;20176;-83
2022/03/07 08:13:18;;;;;;;18.33;10.77;;;;;;;3.56;78.76;101033.81;5019398;28;20235;-80
2022/03/07 08:15:43;;;;;;;13.87;9.03;;;;;;;3.53;79.66;101033.44;5018360;28;20544;-79
2022/03/07 08:18:09;;;;;;;16.97;10.77;;;;;;;3.52;79.63;101026.53;5018279;28;20547;-79
2022/03/07 08:20:35;;;;;;;13.83;8.73;;;;;;;3.44;79.92;101015.44;5017077;28;20196;-80
2022/03/07 08:23:01;;;;;;;16.63;9.90;;;;;;;3.42;79.33;100999.16;5022297;28;20169;-81
2022/03/07 08:25:27;;;;;;;14.73;9.43;;;;;;;3.57;79.23;101026.38;5016442;28;20191;-80
2022/03/07 08:27:53;;;;;;;15.13;9.00;;;;;;;3.59;79.69;101022.41;5013671;28;20191;-79
2022/03/07 08:30:21;;;;;;;14.67;9.63;;;;;;;3.55;80.07;101016.75;5013360;28;20176;-81
2022/03/07 08:32:47;;;;;;;14.67;9.40;;;;;;;3.57;79.94;101011.19;5013426;28;20627;-82
2022/03/07 08:35:13;;;;;;;16.13;9.80;;;;;;;3.66;79.44;101019.00;5013817;28;20251;-79
2022/03/07 08:37:41;;;;;;;15.50;9.43;;;;;;;3.68;78.74;101018.50;5012960;28;20173;-81
2022/03/07 08:40:09;;;;;;;13.73;8.67;;;;;;;3.70;78.90;101018.66;5012949;28;20625;-79
2022/03/07 08:42:35;;;;;;;13.13;9.50;;;;;;;3.72;79.00;101029.00;5013091;28;20603;-80
2022/03/07 08:45:01;;;;;;;14.80;9.30;;;;;;;3.70;78.97;101018.66;5013668;28;20165;-82
2022/03/07 08:47:26;;;;;;;15.33;9.43;;;;;;;3.72;79.52;101017.25;5013733;28;20246;-80
2022/03/07 08:49:53;;;;;;;12.73;8.87;;;;;;;3.56;79.02;100988.19;5013341;28;20643;-80
2022/03/07 08:52:18;;;;;;;15.20;9.33;;;;;;;3.68;78.96;101004.91;5012701;28;20181;-78
2022/03/07 08:54:46;;;;;;;15.67;9.77;;;;;;;3.74;79.52;101018.34;5012663;28;20571;-79
2022/03/07 08:57:13;;;;;;;14.03;8.50;;;;;;;3.75;78.60;101007.47;5012461;28;20188;-79
2022/03/07 08:59:38;;;;;;;16.73;9.47;;;;;;;3.83;79.06;101016.94;5012439;28;20211;-79
2022/03/07 09:02:04;;;;;;;16.60;9.87;;;;;;;3.78;78.15;101018.00;5011197;28;20180;-78
2022/03/07 09:04:30;;;;;;;18.80;10.87;;;;;;;3.73;78.29;100997.88;5012465;28;20552;-78
2022/03/07 09:06:56;;;;;;;17.73;10.60;;;;;;;3.75;78.69;101001.50;5012351;28;20568;-79
2022/03/07 09:09:22;;;;;;;19.97;12.07;;;;;;;3.78;78.11;101002.78;5012559;28;20173;-79
2022/03/07 09:11:48;;;;;;;16.10;11.37;;;;;;;3.78;78.12;101002.78;5012354;28;20260;-79
2022/03/07 09:14:14;;;;;;;30.73;15.33;;;;;;;3.80;78.20;101005.50;5012729;28;20176;-78
2022/03/07 09:16:40;;;;;;;19.77;12.27;;;;;;;3.83;78.98;101023.59;5012398;28;20652;-79
2022/03/07 09:19:06;;;;;;;20.70;13.73;;;;;;;3.87;79.53;101014.06;5012516;28;20285;-79
2022/03/07 09:21:31;;;;;;;19.70;11.83;;;;;;;3.75;78.96;100992.25;5013311;28;20273;-79
2022/03/07 09:23:57;;;;;;;19.07;12.20;;;;;;;3.83;79.27;101006.81;5012925;28;20185;-78
2022/03/07 09:26:22;;;;;;;21.27;11.97;;;;;;;3.77;78.62;100994.97;5020443;28;20173;-80
2022/03/07 09:28:50;;;;;;;44.23;18.87;;;;;;;3.86;79.04;101002.09;5019527;28;20197;-80
2022/03/07 09:31:15;;;;;;;30.37;15.97;;;;;;;3.89;79.24;101001.53;5013843;28;20188;-79
2022/03/07 09:33:41;;;;;;;24.50;14.70;;;;;;;3.92;78.55;101001.91;5018173;28;20204;-79
2022/03/07 09:36:06;;;;;;;31.83;17.93;;;;;;;3.78;78.40;100981.59;5018176;28;20180;-79
2022/03/07 09:38:35;;;;;;;29.53;17.37;;;;;;;3.85;78.56;100999.38;5029076;28;20176;-78
2022/03/07 09:41:01;;;;;;;25.30;15.33;;;;;;;3.88;78.94;101002.28;5033657;28;20264;-78
2022/03/07 09:43:27;;;;;;;24.43;15.47;;;;;;;3.92;78.10;101018.06;5033363;28;20216;-76
2022/03/07 09:45:53;;;;;;;26.43;16.70;;;;;;;3.96;78.65;101021.88;5036554;28;20191;-78
2022/03/07 09:48:24;;;;;;;23.27;13.40;;;;;;;3.79;78.73;100985.94;5037382;28;20181;-77
2022/03/07 09:50:49;;;;;;;18.43;13.10;;;;;;;3.94;79.09;101013.16;5037868;28;20161;-77
2022/03/07 09:53:17;;;;;;;23.17;14.03;;;;;;;3.75;78.96;100976.16;5038073;28;20195;-78
2022/03/07 09:55:43;;;;;;;25.43;13.03;;;;;;;3.94;78.44;101005.56;5037876;28;20188;-78
2022/03/07 09:58:11;;;;;;;27.10;15.30;;;;;;;3.93;78.75;101002.13;5033357;28;20664;-79
2022/03/07 10:00:41;;;;;;;27.47;16.03;;;;;;;3.94;78.48;101010.63;5025434;28;20196;-79
2022/03/07 10:03:09;;;;;;;26.87;15.60;;;;;;;3.98;78.73;101009.38;5025876;28;20251;-79
2022/03/07 10:05:46;;;;;;;29.33;15.70;;;;;;;3.90;78.59;100989.06;5025161;28;20181;-79
2022/03/07 10:08:25;;;;;;;20.53;12.43;;;;;;;4.03;78.50;100995.63;5024355;28;20160;-80
2022/03/07 10:10:52;;;;;;;20.57;13.03;;;;;;;3.92;78.94;100977.50;5011073;28;20169;-79
2022/03/07 10:13:20;;;;;;;23.40;12.30;;;;;;;4.12;78.87;101009.44;5012020;28;20180;-79
2022/03/07 10:15:59;;;;;;;22.60;13.77;;;;;;;4.12;78.80;101012.88;5015355;28;20177;-79
2022/03/07 10:18:28;;;;;;;29.33;16.50;;;;;;;4.02;78.41;100986.19;5012527;28;20164;-80
2022/03/07 10:20:57;;;;;;;25.03;16.17;;;;;;;4.11;77.82;100995.84;5012384;28;20620;-78
2022/03/07 10:23:27;;;;;;;25.13;14.23;;;;;;;4.16;78.01;101009.97;5012039;28;20185;-79
2022/03/07 10:26:04;;;;;;;24.97;15.27;;;;;;;4.19;78.06;101000.94;5012953;28;20252;-79
2022/03/07 10:28:37;;;;;;;29.00;16.27;;;;;;;4.20;78.27;101000.22;5021792;28;20164;-80
2022/03/07 10:31:16;;;;;;;25.47;14.37;;;;;;;4.13;77.82;100985.88;5020153;28;20173;-79
2022/03/07 10:33:42;;;;;;;22.50;13.37;;;;;;;4.16;77.60;100993.88;5015303;28;20157;-78
2022/03/07 10:36:08;;;;;;;21.60;13.77;;;;;;;4.14;78.18;100987.69;5016205;28;20173;-79
2022/03/07 10:38:33;;;;;;;25.10;13.63;;;;;;;4.09;78.60;100976.09;5018238;28;20192;-78
2022/03/07 10:40:59;;;;;;;31.67;14.67;;;;;;;4.12;79.12;100982.44;5015411;28;20269;-80
2022/03/07 10:43:24;;;;;;;23.97;14.27;;;;;;;4.24;79.66;100987.19;5013961;28;20225;-78
2022/03/07 10:45:57;;;;;;;24.33;14.40;;;;;;;4.25;79.72;100987.38;5015459;28;20624;-81
2022/03/07 10:48:25;;;;;;;23.17;14.70;;;;;;;4.25;79.46;100984.81;5015592;28;20165;-79
2022/03/07 10:50:54;;;;;;;24.90;15.67;;;;;;;4.06;79.33;100942.75;5015098;28;20227;-77
2022/03/07 10:53:21;;;;;;;24.50;14.43;;;;;;;4.32;79.80;100983.94;5014998;28;20294;-80
2022/03/07 10:55:54;;;;;;;26.30;15.80;;;;;;;4.12;79.30;100935.91;5014904;28;20672;-81
2022/03/07 10:58:21;;;;;;;30.17;16.47;;;;;;;4.37;78.18;100975.25;5014765;28;20227;-78
2022/03/07 11:00:55;;;;;;;28.77;15.87;;;;;;;4.36;78.25;100971.81;5014649;28;20215;-78
2022/03/07 11:03:26;;;;;;;31.77;17.27;;;;;;;4.37;78.98;100968.53;5014860;28;20173;-79
2022/03/07 11:05:52;;;;;;;28.00;16.60;;;;;;;4.37;79.96;100972.72;5015086;28;20173;-78
2022/03/07 11:08:20;;;;;;;31.23;18.47;;;;;;;4.40;79.73;100962.94;5014687;28;20694;-79
2022/03/07 11:10:48;;;;;;;29.40;15.23;;;;;;;4.43;80.06;100965.84;5013400;28;20216;-80
2022/03/07 11:13:18;;;;;;;24.77;16.03;;;;;;;4.37;79.89;100960.94;5013411;28;20613;-80
2022/03/07 11:15:46;;;;;;;31.10;17.33;;;;;;;4.39;79.19;100956.97;5014408;28;20648;-79
2022/03/07 11:18:12;;;;;;;28.13;17.00;;;;;;;4.43;79.96;100958.22;5014395;28;20686;-79